Listado único de aspirantes (Periodo de valoración 31 octubre de 2016)


* Listado ordenado por el total Autobaremo. Recuerde que también puede ordenarlo por Apellidos, Nombre

Listado único de aspirantes admitidos en turno libre en la bolsa de selección de personal estatutario temporal, categoría: Enfermera-Area de Neonatología
Apellidos, Nombre Exp. SAS Auto. Exp. NO SAS Auto. Form. Auto. otros méritos Total Auto. Exp. SAS Baremo Exp. NO SAS Baremo Form. Baremo Otros méritos Punt. Total Baremo Fecha Act.
RODRIGUEZ HUESA, AGUEDA 49,500 0,300 36,000 1,000 86,800 49,500 0,000 36,000 1,000 86,500 13/06/2017
RODRÍGUEZ SALINAS, MARÍA DEL MAR 39,600 0,000 39,000 8,000 86,600 39,600 0,000 39,000 6,450 85,050 13/06/2017
FERNÁNDEZ DÍAZ, NOEMÍ 40,800 0,000 39,000 6,750 86,550 40,800 0,000 36,000 6,750 83,550 13/06/2017
TORRES AMENGUAL, MARGARITA 10,500 20,050 36,000 20,000 86,550 10,500 20,050 36,000 20,000 86,550 13/06/2017
GONZALEZ TOLEDANO, INMACULADA 47,700 0,000 36,000 2,800 86,500 47,700 0,000 36,000 2,200 85,900 13/06/2017
RIOS CORBACHO, SONIA 44,700 3,600 36,000 2,175 86,475 44,700 1,500 36,000 2,175 84,375 13/06/2017
CRUZ GARCIA, LUISA MARIA 54,300 0,000 30,000 2,125 86,425 54,300 0,000 30,000 1,400 85,700 13/06/2017
PEÑA GALLARDO, RAMÓN 55,000 0,900 30,000 1,425 86,425 55,000 0,900 30,000 1,100 86,100 13/06/2017
LOPEZ SERRANO, RAQUEL 50,400 0,000 36,000 0,000 86,400 50,400 0,000 36,000 0,000 86,400 13/06/2017
MÁRQUEZ ROMERO, ANA BELÉN 47,100 2,700 35,000 1,600 86,400 47,100 2,700 35,000 1,500 86,300 13/06/2017
MARTÍN ROJO, CRISTINA BELÉN 48,600 1,800 36,000 0,000 86,400 48,600 0,000 36,000 0,000 84,600 13/06/2017
MARTIN BALLESTEROS, ANA MARIA 54,300 0,000 30,000 2,000 86,300 54,300 0,000 30,000 2,000 86,300 13/06/2017
PÉREZ GUTIÉRREZ, SERGIO 45,300 0,000 39,000 2,000 86,300 45,300 0,000 39,000 2,000 86,300 13/06/2017
BUENO PEREZ, PEDRO FERNANDO 43,800 4,400 36,000 2,000 86,200 43,800 4,400 36,000 2,000 86,200 13/06/2017
LOPEZ LAZARO, MARIA DEL MAR 48,600 0,600 36,000 1,000 86,200 48,600 0,600 36,000 1,000 86,200 13/06/2017
MARTINEZ RODRIGUEZ, MARIA DEL ROCIO 0,300 30,900 35,000 20,000 86,200 0,300 30,900 35,000 1,000 67,200 13/06/2017
PEREZ BLASCO, MARIA JOSE 25,300 4,900 36,000 20,000 86,200 25,300 1,500 36,000 1,500 64,300 13/06/2017
RUIZ GONZALEZ, NURIA 32,400 0,000 39,000 14,800 86,200 32,400 0,000 39,000 3,000 74,400 13/06/2017
ARANDA CRESPO, MARIA DEL CARMEN 55,000 0,000 30,000 1,150 86,150 55,000 0,000 30,000 1,100 86,100 13/06/2017
LOBERA GOMEZ, VIRGINIA 45,900 0,400 36,000 3,800 86,100 45,900 0,400 36,000 2,600 84,900 13/06/2017
MARTOS MARTÍNEZ, ISABEL 20,700 10,650 42,000 12,750 86,100 20,700 8,250 42,000 5,775 76,725 13/06/2017
REYES TRUJILLO, ROSA MARIA 47,100 0,000 38,000 1,000 86,100 47,100 0,000 35,000 1,000 83,100 13/06/2017
FERNANDEZ MORENO, YOLANDA 50,100 0,600 35,000 0,350 86,050 50,100 0,600 33,000 0,200 83,900 13/06/2017
MARTÍNEZ MARTÍNEZ, ISABEL MARÍA 1,800 47,700 33,000 3,550 86,050 1,800 47,700 33,000 2,550 85,050 13/06/2017
RIVAS MARCHENA, MARIA DOLORES 33,600 27,900 30,000 1,050 86,050 33,600 27,900 30,000 1,050 86,050 13/06/2017
SÁNCHEZ RAMÓN, ANA MELCHORA 42,000 5,700 34,000 4,350 86,050 42,000 5,700 34,000 4,300 86,000 13/06/2017
ALVAREZ SAEZ, MARIA TERESA 55,000 0,900 30,000 1,025 86,025 55,000 0,900 30,000 1,025 86,025 13/06/2017
MEDINA MORENO, INMACULADA 40,500 3,300 39,000 3,225 86,025 40,500 3,300 39,000 2,825 85,625 13/06/2017
ARIAS LATORRE, MARIA TERESA 9,900 40,200 30,000 5,900 86,000 9,900 40,200 30,000 2,800 82,900 13/06/2017
CERVILLA ESPERIDON, MARIA DE LOS ANGELES 55,000 14,400 30,000 1,000 86,000 55,000 14,400 30,000 1,000 86,000 13/06/2017
CONTRERAS NAVARRO, JOSE MARIA 52,500 31,500 30,000 1,000 86,000 52,500 31,500 30,000 1,000 86,000 13/06/2017
DIAZ SANCHEZ, JUSTA MARIA 55,000 0,000 30,000 1,000 86,000 55,000 0,000 30,000 1,000 86,000 13/06/2017
MORENTE MARTINEZ, MARIA ROSA 55,000 0,000 30,000 1,000 86,000 55,000 0,000 15,450 1,000 71,450 13/06/2017
NAVIO ACOSTA, PILAR 55,000 15,600 30,000 1,000 86,000 55,000 15,600 30,000 1,000 86,000 13/06/2017
PUERTO DIAZ, MAXIMIANA 2,700 55,300 30,000 1,000 86,000 2,700 55,300 30,000 1,000 86,000 13/06/2017
RICO CUEVAS, MARIA FLORES 48,900 0,800 35,000 1,300 86,000 48,900 0,800 35,000 1,150 85,850 13/06/2017
RUBIO RUIZ, CARMEN BELÉN 55,000 0,900 30,000 1,000 86,000 55,000 0,900 30,000 1,000 86,000 13/06/2017
CARRASCO DOMINGUEZ, MARIA LUZ 9,600 35,100 38,000 3,200 85,900 9,600 35,100 38,000 2,050 84,750 13/06/2017
MORAN GOMEZ, PILAR 48,900 0,000 36,000 1,000 85,900 48,900 0,000 36,000 1,000 85,900 13/06/2017
SANCHEZ VITORIQUE, MIRIAM 0,000 54,900 30,000 0,950 85,850 0,000 45,300 29,600 0,650 75,550 13/06/2017
MIRANDA NUÑEZ, SONIA 53,700 0,000 32,000 0,100 85,800 53,700 0,000 32,000 0,000 85,700 13/06/2017
RODRÍGUEZ REYES, BEATRIZ 40,800 6,000 38,000 1,000 85,800 40,800 6,000 38,000 1,000 85,800 13/06/2017
CASTAÑO ORTEGA, MARÍA ESTHER 41,800 6,900 36,000 1,025 85,725 41,800 6,900 36,000 1,000 85,700 13/06/2017
GALLARDO GALLEGO, GEMA MARIA 41,100 0,000 42,000 2,600 85,700 41,100 0,000 39,000 2,600 82,700 13/06/2017
HERNANDEZ FLORES, MARIA DEL MAR 31,200 6,000 36,000 12,500 85,700 31,200 6,000 36,000 11,100 84,300 13/06/2017
ORTIZ CARRASCO, ANA MARIA 38,700 3,000 36,000 8,000 85,700 38,700 3,000 36,000 2,000 79,700 13/06/2017
SERRANO MUÑOZ, ESTHER 38,100 6,300 36,000 5,300 85,700 38,100 6,300 36,000 3,200 83,600 13/06/2017
TORRES CONDE, ANA PILAR 0,000 36,600 39,000 10,100 85,700 0,000 36,300 39,000 5,550 80,850 13/06/2017
URBANO URBANO, INMACULADA 48,600 0,000 35,000 2,100 85,700 48,600 0,000 35,000 2,100 85,700 13/06/2017
MARTINEZ GOMEZ, ANTONIA 5,400 48,900 30,000 1,325 85,625 5,400 48,900 30,000 1,325 85,625 13/06/2017
GOMEZ RODRIGUEZ, MARIA ALEJANDRA 37,800 13,800 33,000 1,000 85,600 37,800 13,800 33,000 1,000 85,600 13/06/2017
VELASCO SÁNCHEZ, SONIA 40,500 3,600 39,000 2,500 85,600 40,500 3,000 39,000 1,200 83,700 13/06/2017
GOMEZ GALLEGO, MARIA ISABEL 46,800 0,900 36,000 1,800 85,500 46,800 0,900 36,000 1,200 84,900 13/06/2017
LIRIA FERNÁNDEZ, JULIA MARÍA 42,600 6,900 36,000 0,000 85,500 42,600 6,900 36,000 0,000 85,500 13/06/2017
FERNANDEZ SANCHEZ, EVA MARIA 38,100 1,300 36,000 10,000 85,400 38,100 0,900 34,200 1,000 74,200 13/06/2017
MARÍN SÁNCHEZ, DOLORES 54,600 3,350 30,000 0,400 85,400 54,600 3,350 30,000 0,350 85,350 13/06/2017
SANCHEZ LINERO, CATALINA 47,100 0,000 36,000 2,300 85,400 47,100 0,000 36,000 2,300 85,400 13/06/2017
SANCHEZ LORENTE, ENCARNACION 29,400 0,000 36,000 20,000 85,400 29,400 0,000 36,000 0,025 65,425 13/06/2017
LOZANO TUDANCA, EUGENIA 55,000 16,800 30,000 0,325 85,325 55,000 16,800 30,000 0,325 85,325 13/06/2017
TAPIA RUBIO, MARÍA JOSÉ 22,800 29,400 32,000 1,000 85,200 22,800 25,200 32,000 1,000 81,000 13/06/2017
MORENO NAVARRO, MARIA DEL ROSARIO 15,000 27,600 36,000 6,500 85,100 15,000 27,600 36,000 2,550 81,150 13/06/2017
GARCIA GARCIA, SONIA 55,000 0,900 30,000 0,050 85,050 55,000 0,900 30,000 0,050 85,050 13/06/2017
DELGADO LOPEZ, MONTSERRAT 33,300 11,700 39,000 1,025 85,025 33,300 11,700 36,000 1,025 82,025 13/06/2017
ALAMO DEL HOYO, MARIA DEL ROSARIO 41,100 20,100 30,000 0,000 85,000 41,100 20,100 30,000 0,000 85,000 13/06/2017
BENITEZ SANTAELLA, MERCEDES 55,000 3,000 30,000 0,000 85,000 55,000 0,000 30,000 0,000 85,000 13/06/2017
BLANCO GOMEZ, EMILIO 3,000 54,000 30,000 0,000 85,000 3,000 54,000 26,525 0,000 81,525 13/06/2017
MARTÍNEZ VAN-DUIJVENBODE, HELENA JUANA 12,000 19,500 36,000 17,500 85,000 12,000 19,500 36,000 14,375 81,875 13/06/2017
REYES LEIVA, ADELAIDA 9,300 25,200 36,000 14,500 85,000 9,300 25,200 36,000 12,300 82,800 13/06/2017
VALENZUELA GONZALEZ, MARIA MAGDALENA 55,000 0,000 30,000 0,000 85,000 55,000 0,000 30,000 0,000 85,000 13/06/2017
CASTILLO CASTRO, NOEL 35,400 10,950 36,000 2,600 84,950 35,400 10,850 34,000 1,200 81,450 13/06/2017
GARCÍA. FERNÁNDEZ., EVA Mª. 44,700 6,200 33,000 1,050 84,950 44,700 6,200 30,000 1,000 81,900 13/06/2017
JALDO SUAREZ, Mª ISABEL 41,700 2,900 39,000 1,350 84,950 41,700 0,000 39,000 1,050 81,750 13/06/2017
SÁNCHEZ CABANILLAS, MARÍA JOSEFA 29,700 16,200 36,000 3,025 84,925 29,700 16,200 36,000 2,100 84,000 13/06/2017
CADENAS GARCÍA, CRISTINA 39,600 8,400 36,000 0,800 84,800 39,600 8,400 36,000 0,500 84,500 13/06/2017
FERNANDEZ JURADO, Mª JOSE 46,800 0,000 36,000 2,000 84,800 46,800 0,000 36,000 2,000 84,800 13/06/2017
GARCIA SANCHEZ, CATALINA ISABEL 34,200 4,400 36,000 10,150 84,750 34,200 4,400 36,000 4,900 79,500 13/06/2017
SANCHEZ MORENO, Mª VICTORIA 1,200 42,350 36,000 5,150 84,700 1,200 40,650 36,000 4,150 82,000 13/06/2017
JORDAN GAVILAN, SOLEDAD 46,500 0,150 36,000 2,000 84,650 46,500 0,150 36,000 2,000 84,650 13/06/2017
DE DUEÑAS LAGE, Mª ALICIA 33,300 13,200 36,000 2,100 84,600 33,300 13,200 36,000 2,100 84,600 13/06/2017
FERNÁNDEZ TORRES, JOSE ANTONIO 42,600 10,800 30,000 1,200 84,600 42,600 10,800 30,000 0,200 83,600 13/06/2017
RAMOS HERRERA, ANA ISABEL 47,700 0,900 36,000 0,000 84,600 47,700 0,900 36,000 0,000 84,600 13/06/2017
SORIA PEÑA, RAQUEL 41,100 3,500 39,000 1,000 84,600 41,100 3,500 39,000 1,000 84,600 13/06/2017
FERNANDEZ CUBILLO, CARMEN 6,600 40,950 36,000 1,000 84,550 6,600 40,950 36,000 1,000 84,550 13/06/2017
ALBA MARTÍN, RAQUEL 15,600 12,900 36,000 20,000 84,500 15,600 1,200 36,000 20,000 72,800 13/06/2017
CASTILLO ALARCÓN, ISABEL 6,000 35,100 36,000 7,375 84,475 6,000 35,100 36,000 4,600 81,700 13/06/2017
CRUZ PEREZ, MARIA TERESA 50,400 0,000 34,000 0,025 84,425 50,400 0,000 34,000 0,000 84,400 13/06/2017
ORTEGA ALE, YOLANDA 47,400 0,000 36,000 1,000 84,400 47,400 0,000 36,000 1,000 84,400 13/06/2017
FUENTES ARRABALI, SONIA 43,800 0,900 39,000 0,600 84,300 43,800 0,900 39,000 0,550 84,250 13/06/2017
GARCIA GRACIA, MARGARITA 54,300 0,000 30,000 0,000 84,300 54,300 0,000 19,550 0,000 73,850 13/06/2017
PASTOR TORRENS, MARIA 48,300 0,000 34,000 2,000 84,300 48,300 0,000 34,000 2,000 84,300 13/06/2017
RODRIGUEZ PEREZ, BEATRIZ 40,500 10,500 32,000 1,300 84,300 40,500 10,500 32,000 1,000 84,000 13/06/2017
POZO CAMBEIRO, Mª ESPERANZA 40,500 5,100 37,000 1,650 84,250 40,500 0,000 37,000 1,050 78,550 13/06/2017
QUESADA MARTINEZ, MARIA INMACULADA 24,000 12,000 36,000 12,250 84,250 24,000 12,000 36,000 10,950 82,950 13/06/2017
CANAS RONDÓN, MARCOS 0,000 52,200 32,000 0,000 84,200 0,000 52,200 32,000 0,000 84,200 13/06/2017
OLIVENCIA MARTINEZ, Mª ISABEL 7,500 45,600 30,000 1,100 84,200 7,500 45,600 30,000 1,050 84,150 13/06/2017
RUIZ RODRIGUEZ, M LUISA 0,600 45,600 37,000 1,000 84,200 0,600 45,600 37,000 1,000 84,200 13/06/2017
INFANTE CHACÓN, NURIA 40,500 0,000 36,000 7,650 84,150 40,500 0,000 36,000 6,000 82,500 13/06/2017
SOLIER ALONSO, YOLANDA 41,100 3,350 36,000 3,700 84,150 41,100 3,350 36,000 2,100 82,550 13/06/2017
AGUILERA PEREZ, Mª CARMEN 43,800 0,000 36,000 4,300 84,100 43,800 0,000 36,000 3,600 83,400 13/06/2017
GARCIA GARCIA, ANA BELEN 50,100 0,000 33,000 1,000 84,100 50,100 0,000 33,000 1,000 84,100 13/06/2017
JIMENEZ RAMIREZ, MARIA JOSE 29,700 0,600 36,000 17,750 84,050 29,700 0,600 36,000 11,100 77,400 13/06/2017
GAVALA ARJONA, CRISTINA 12,300 25,200 39,000 7,500 84,000 12,300 25,200 39,000 1,600 78,100 13/06/2017
HERNANDEZ CASTAÑEDA, LOURDES 46,500 0,000 36,000 1,450 83,950 46,500 0,000 36,000 1,425 83,925 13/06/2017
LÓPEZ PARRA, CARMEN Mª 6,600 32,100 39,000 6,250 83,950 6,600 30,300 39,000 4,450 80,350 13/06/2017
RUIZ JIMENEZ, MARIA NURIA 37,200 9,600 36,000 1,100 83,900 37,200 9,600 36,000 1,100 83,900 13/06/2017
BÁRCENAS VILLEGAS, ANTONIO 0,000 49,800 33,000 1,000 83,800 0,000 49,200 30,000 1,000 80,200 13/06/2017
HERNANDEZ ZAMORA, FRANCISCA 34,800 12,000 36,000 1,000 83,800 34,800 12,000 36,000 1,000 83,800 13/06/2017
MONTAÑEZ RUBIO, CARMEN 34,800 12,000 36,000 1,000 83,800 34,800 12,000 36,000 1,000 83,800 13/06/2017
VEGA JURADO, Mª ROSARIO 42,600 4,200 36,000 1,000 83,800 42,600 4,200 36,000 1,000 83,800 13/06/2017
SANCHEZ BAENA, ROSA MARIA 2,400 38,100 39,000 4,275 83,775 2,400 37,200 36,000 2,125 77,725 13/06/2017
AYERBE LÓPEZ, ROCÍO 30,900 6,850 39,000 6,950 83,700 30,900 6,850 39,000 3,550 80,300 13/06/2017
JAIME PACHECO, MARIA DOLORES 34,500 7,500 39,000 2,650 83,650 34,500 7,500 39,000 2,650 83,650 13/06/2017
SÁNCHEZ RAMÍREZ, INMACULADA 35,400 15,100 33,000 0,150 83,650 35,400 14,700 33,000 0,150 83,250 13/06/2017
MENCHÓN PALOP, ROSARIO 0,900 35,700 36,000 11,025 83,625 0,900 35,700 36,000 2,925 75,525 13/06/2017
SEVILLA RODRIGUEZ, MARIA DEL MAR 0,300 44,700 37,000 1,625 83,625 0,300 41,700 37,000 1,475 80,475 13/06/2017
ALVAREZ CONESA, INMACULADA 14,400 30,200 39,000 0,000 83,600 14,400 30,200 39,000 0,000 83,600 13/06/2017
PANCORBO BERMUDEZ, FCO. JAVIER 21,300 31,200 30,000 1,100 83,600 21,300 31,200 30,000 1,000 83,500 13/06/2017
AGUILAR JIMENEZ, ALICIA 0,000 49,500 34,000 0,000 83,500 0,000 49,500 34,000 0,000 83,500 13/06/2017
CASTRO RIZOS, EVA MARIA 36,900 4,700 36,000 5,900 83,500 36,900 4,200 36,000 2,000 79,100 13/06/2017
GOMEZ BENITEZ, TERESA 42,000 1,200 39,000 1,300 83,500 42,000 1,200 39,000 1,000 83,200 13/06/2017
OLMO SANCHEZ, MERCEDES 34,500 10,950 36,000 2,000 83,450 34,500 10,950 36,000 2,000 83,450 13/06/2017
ALCÁNTARA CORTINA, CARLOS 0,600 43,800 39,000 0,000 83,400 0,600 43,800 39,000 0,000 83,400 13/06/2017
DE LA HABA DE LA CERDA, Mª FUENSANTA 7,500 45,900 30,000 0,000 83,400 7,500 42,300 30,000 0,000 79,800 13/06/2017
ALMAGRO VILLAR, MARIA MERCEDES 23,400 20,500 36,000 3,450 83,350 23,400 19,200 35,000 2,100 79,700 13/06/2017
RIVERO VARGAS, MARIA DEL CARMEN 55,000 0,000 27,325 1,000 83,325 55,000 0,000 27,325 1,000 83,325 13/06/2017
BARRAGAN SOLANO, FRANCISCO 29,100 16,200 36,000 2,000 83,300 29,100 16,200 36,000 2,000 83,300 13/06/2017
DIAZ ORTEGA, MARIA DEL MAR 25,500 1,800 36,000 20,000 83,300 25,500 1,200 36,000 18,425 81,125 13/06/2017
GARCIA ARCO, ANA BELEN 13,500 17,100 36,000 16,700 83,300 13,500 17,100 36,000 2,800 69,400 13/06/2017
GOMEZ JERÓNIMO, ERIKA 6,000 25,800 36,000 15,500 83,300 6,000 25,800 36,000 9,850 77,650 13/06/2017
BUSTARA GONZALEZ, GEMA VANESA 34,800 7,800 39,000 1,675 83,275 34,800 1,200 39,000 1,325 76,325 13/06/2017
TOLEDO LÓPEZ, ANA VIOLETA 34,500 0,700 38,000 10,000 83,200 34,500 0,300 38,000 0,700 73,500 13/06/2017
CARRASCAL DIAZ, Mª PEÑA 22,800 14,700 39,000 6,650 83,150 22,800 14,700 36,000 2,450 75,950 13/06/2017
ANAYA CACERES, ENRIQUE 43,200 1,800 37,000 1,125 83,125 43,200 1,800 37,000 1,050 83,050 13/06/2017
PEREZ LUQUE, MARIA DEL MAR 0,600 47,100 33,000 2,400 83,100 0,600 47,100 33,000 2,350 83,050 13/06/2017
FDEZ-SEVILLA LEYVA, ANA BELÉN 40,500 0,000 36,000 6,550 83,050 40,500 0,000 36,000 5,350 81,850 13/06/2017
FERNANDEZ DE BENITO, FRANCISCA 36,900 0,100 36,000 10,050 83,050 36,900 0,100 36,000 9,650 82,650 13/06/2017
AGUILAR MARTINEZ, ANA ISABEL 38,700 3,300 39,000 2,000 83,000 38,700 3,300 39,000 2,000 83,000 13/06/2017
MORALES MARÍN, Mª ANGELES 9,900 33,000 39,000 1,050 82,950 9,900 33,000 39,000 1,050 82,950 13/06/2017
RUBIA RUEDA, JUAN 33,600 15,900 32,000 1,450 82,950 33,600 15,900 32,000 1,150 82,650 13/06/2017
GIL MUÑOZ, Mª DEL ROSARIO 2,700 39,700 39,000 1,525 82,925 2,700 39,000 39,000 0,275 80,975 13/06/2017
VELA BARRAGAN, IRENE 38,700 7,200 36,000 1,000 82,900 38,700 7,200 36,000 1,000 82,900 13/06/2017
LORENZO HERNÁNDEZ, MARÍA PIEDAD 20,100 12,600 36,000 14,125 82,825 20,100 12,600 36,000 8,925 77,625 13/06/2017
JIMENEZ GUERRERO, ANA AMPARO 39,900 5,800 36,000 1,100 82,800 39,900 5,800 36,000 1,050 82,750 13/06/2017
NARVÁEZ ARGENT, VÍCTOR MANUEL 34,800 4,200 42,000 1,800 82,800 34,800 4,200 42,000 0,225 81,225 13/06/2017
LOPEZ MANCEBO, MARIA DEL CARMEN 13,200 30,900 36,000 2,675 82,775 13,200 30,900 36,000 2,675 82,775 13/06/2017
MARIN GARROCHO, ARANZAZU 39,000 4,650 39,000 0,100 82,750 39,000 4,650 39,000 0,100 82,750 13/06/2017
GUDE CORRALES, CELIA 45,900 0,000 36,000 0,800 82,700 45,900 0,000 36,000 0,200 82,100 13/06/2017
ORTEGA AGUILERA, MARIA 1,200 38,400 42,000 1,075 82,675 1,200 38,400 36,000 1,075 76,675 13/06/2017
ORTIZ MARISCAL, SANDRA 37,200 7,800 36,000 1,625 82,625 37,200 0,000 36,000 0,000 73,200 13/06/2017
MADRID ARILLO, BEATRIZ 46,500 0,000 36,000 0,000 82,500 46,500 0,000 36,000 0,000 82,500 13/06/2017
SANCHEZ MORENO, ROSARIO 44,400 0,000 36,000 2,100 82,500 44,400 0,000 36,000 2,100 82,500 13/06/2017
MARTINEZ GUTIERREZ, CRISTINA 39,000 3,750 36,000 3,725 82,475 39,000 3,750 36,000 3,050 81,800 13/06/2017
GONZALEZ PEREZ, ALBERTO 41,400 0,000 39,000 2,000 82,400 41,400 0,000 39,000 2,000 82,400 13/06/2017
MORALES MENA, SERGIO 33,600 7,800 39,000 2,000 82,400 33,600 7,800 39,000 2,000 82,400 13/06/2017
PEREZ BERNAL, MANUELA 27,900 12,600 36,000 5,900 82,400 27,900 12,600 36,000 5,000 81,500 13/06/2017
BUENO MARTIN, JOSÉ ENRIQUE 35,400 5,400 36,000 5,500 82,300 35,400 5,400 36,000 3,000 79,800 13/06/2017
IGLESIAS LOPEZ, MARIA ISABEL 0,900 45,300 36,000 0,100 82,300 0,900 43,500 36,000 0,100 80,500 13/06/2017
CARRILLO SÁNCHEZ, ROSARIO MARÍA 38,700 1,200 36,000 6,375 82,275 38,700 0,200 36,000 1,325 76,225 13/06/2017
ROMERO VICENTE, ELENA 1,500 39,300 39,000 2,450 82,250 1,500 39,300 39,000 2,000 81,800 13/06/2017
FERNÁNDEZ TORO, MONICA 38,700 1,050 39,000 3,450 82,200 38,700 1,050 39,000 3,150 81,900 13/06/2017
PALOMO RUIZ, FRANCISCA 39,300 3,300 39,000 0,600 82,200 39,300 3,300 39,000 0,600 82,200 13/06/2017
SAINZ VARGAS, SANDRA 0,000 43,200 39,000 0,000 82,200 0,000 32,400 36,000 0,000 68,400 13/06/2017
LUQUE CORTES, EVA MARIA 8,100 44,050 30,000 0,000 82,150 8,100 44,050 30,000 0,000 82,150 13/06/2017
DIAZ CORTES, MARIA DEL MAR 39,600 0,000 36,000 6,500 82,100 39,600 0,000 36,000 6,350 81,950 13/06/2017
GRANADO EXPOSITO, MARIA INMACULADA 43,650 0,150 36,000 2,300 82,100 43,650 0,150 36,000 2,300 82,100 13/06/2017
VAZQUEZ GARCIA, SUSANA 40,800 4,200 36,000 1,050 82,050 40,800 4,200 36,000 1,050 82,050 13/06/2017
PEREZ TORRES, OLGA 42,600 0,400 39,000 0,000 82,000 42,600 0,000 39,000 0,000 81,600 13/06/2017
ARANDA RODRIGUEZ, PATRICIA 29,700 11,400 36,000 4,875 81,975 29,700 11,400 36,000 4,875 81,975 13/06/2017
MOLINA MEDINA, ANA ISABEL 12,450 7,500 42,000 20,000 81,950 12,450 2,900 42,000 18,525 75,875 13/06/2017
POSTIGO QUINTERO, MARIA DEL MAR 4,800 38,100 39,000 0,050 81,950 4,800 38,100 39,000 0,050 81,950 13/06/2017
IZAGOÑOLA ORDOÑEZ, PILAR 19,300 3,600 39,000 20,000 81,900 19,300 3,600 39,000 1,300 63,200 13/06/2017
LUQUE MADUEÑO, MARIA ANGELES 0,000 51,900 30,000 0,000 81,900 0,000 51,900 30,000 0,000 81,900 13/06/2017
ARCOS LOPEZ, LUCIA 30,600 0,000 39,000 12,250 81,850 30,600 0,000 39,000 4,100 73,700 13/06/2017
CARBALLO VALLE, ALFONSO JAVIER 40,550 2,300 36,000 3,000 81,850 40,550 2,300 36,000 2,000 80,850 13/06/2017
DE LA BARRERA RAMOS, BEGOÑA 44,850 0,000 36,000 1,000 81,850 44,850 0,000 36,000 1,000 81,850 13/06/2017
CHANIVET FERIA, ELISA ISABEL 37,800 0,000 39,000 5,000 81,800 37,800 0,000 39,000 5,000 81,800 13/06/2017
FUENTES SANCHEZ, LOURDES 0,600 45,900 34,000 1,300 81,800 0,600 45,900 34,000 1,000 81,500 13/06/2017
GIJÓN GONZÁLEZ, INMACULADA 43,800 0,000 36,000 2,000 81,800 43,800 0,000 36,000 0,500 80,300 13/06/2017
CAPARROS RODRIGUEZ, MARIA D. 13,800 28,200 36,000 3,700 81,700 13,800 28,200 36,000 2,700 80,700 13/06/2017
GARCIA GALLEGO, JOSE MARIA 0,000 44,700 36,000 1,000 81,700 0,000 41,100 36,000 1,000 78,100 13/06/2017
GUERRERO MORALES, Mª ANGELES 27,900 19,800 34,000 0,000 81,700 27,900 4,500 32,000 0,000 64,400 13/06/2017
GARCIA MORENO, SUSANA 40,200 0,000 36,000 5,450 81,650 40,200 0,000 36,000 4,600 80,800 13/06/2017
ABBOUD PALACIOS, IVAN 4,800 46,200 30,000 0,600 81,600 4,800 46,200 30,000 0,550 81,550 13/06/2017
JIMENEZ BOLAÑOS, LOURDES 24,300 21,300 36,000 0,000 81,600 24,300 18,900 36,000 0,000 79,200 13/06/2017
MORENO CASTRO, C. YOLANDA 42,600 0,000 39,000 0,000 81,600 42,600 0,000 39,000 0,000 81,600 13/06/2017
PEGALAJAR HIGUERAS, Mª CARMEN 40,200 0,000 36,000 5,400 81,600 40,200 0,000 36,000 0,100 76,300 13/06/2017
CÁRCAMO ESCASÚA, VANESSA Mª ROCÍO 41,400 0,000 39,000 1,000 81,400 41,400 0,000 39,000 1,000 81,400 13/06/2017
ROJAS AGUILAR, MARÍA JOSÉ 43,500 0,900 36,000 1,000 81,400 43,500 0,900 36,000 1,000 81,400 13/06/2017
RODRIGUEZ MALDONADO, VIRGINIA 55,000 3,100 25,375 1,000 81,375 55,000 0,600 20,525 1,000 76,525 13/06/2017
CASTRO MARRON, MYRIAN 2,400 48,600 30,000 0,200 81,200 2,400 48,600 30,000 0,200 81,200 13/06/2017
MARCHENA QUESADA, EVA 36,300 3,900 39,000 2,000 81,200 36,300 0,000 36,000 2,000 74,300 13/06/2017
VAZQUEZ BERMUDEZ, MARTIN 39,900 0,300 39,000 2,000 81,200 39,900 0,000 39,000 2,000 80,900 13/06/2017
ARIZA BAQUERO, MARIA ISABEL 42,000 0,000 36,000 3,100 81,100 42,000 0,000 36,000 1,900 79,900 13/06/2017
FERNÁNDEZ GONZÁLEZ, Mª DE LA SALUD 44,900 0,000 36,000 0,200 81,100 44,900 0,000 36,000 0,200 81,100 13/06/2017
GARCÍA MOLINA, MILAGROS 23,400 19,200 36,000 2,500 81,100 23,400 19,200 36,000 2,200 80,800 13/06/2017
MARQUEZ DOMINGUEZ, TRINIDAD 38,700 1,400 39,000 2,000 81,100 38,700 1,400 36,000 2,000 78,100 13/06/2017
PEREZ DOMINGUEZ, MARIA ANGELES 43,200 0,900 36,000 1,000 81,100 43,200 0,000 36,000 1,000 80,200 13/06/2017
POZO CAUQUI, SILVIA 39,300 0,600 36,000 5,200 81,100 39,300 0,600 36,000 3,200 79,100 13/06/2017
ESCOT HIGUERAS, SANDRA 2,700 39,000 36,000 3,350 81,050 2,700 39,000 36,000 0,000 77,700 13/06/2017
MARTINEZ MARTINEZ, MARIA DOLORES 0,600 47,400 33,000 0,050 81,050 0,600 47,400 33,000 0,000 81,000 13/06/2017

* Los candidatos marcados con un asterisco no alcanzan la nota mínima exigida una vez baremados

- Al posicionarse sobre el número de página le aparecerá el rango de notas de autobaremo que contiene dicha página

[1]  [2]  [3]  [4]  [5]  [6]  [7]  [8]  [9]  [10]  [11]  [12]  [13] 


Color de candidatos/as que por autobaremo alcanzan puntuación mínima para formar parte de la bolsa Candidatos/as que por autobaremo alcanzan puntuación mínima para formar parte de la bolsa

Color de Candidatos/as que no alcanzan puntuación mínima para formar parte de la bolsa Candidatos/as que no alcanzan puntuación mínima para formar parte de la bolsa



[Volver]